Time;durP1;ratioP1;P1;durP2;ratioP2;P2;SDS_P1;SDS_P2;PMS_P1;PMS_P2;Temp;Humidity;BMP_temperature;BMP_pressure;BME280_temperature;BME280_humidity;BME280_pressure;Samples;Min_cycle;Max_cycle;Signal;HPM_P1;HPM_P2
2022/03/04 00:01:46;;;;;;;0.90;0.05;;;;;;;;;;4195371;28;20479;-35
2022/03/04 00:03:47;;;;;;;0.57;0.20;;;;;;;;;;4195529;28;20048;-35
2022/03/04 00:05:48;;;;;;;0.65;0.15;;;;;;;;;;4194226;28;20091;-35
2022/03/04 00:07:49;;;;;;;0.30;0.20;;;;;;;;;;4195248;28;20433;-35
2022/03/04 00:09:50;;;;;;;0.70;0.10;;;;;;;;;;4195537;28;20095;-36
2022/03/04 00:11:51;;;;;;;0.20;0.10;;;;;;;;;;4195519;28;20109;-36
2022/03/04 00:13:52;;;;;;;0.43;0.10;;;;;;;;;;4195746;28;20617;-35
2022/03/04 00:15:53;;;;;;;0.35;0.10;;;;;;;;;;4195542;28;20048;-34
2022/03/04 00:17:54;;;;;;;0.10;0.10;;;;;;;;;;4194867;28;20101;-35
2022/03/04 00:19:55;;;;;;;0.10;0.10;;;;;;;;;;4195520;28;20071;-35
2022/03/04 00:21:55;;;;;;;0.85;0.10;;;;;;;;;;4197078;28;20539;-35
2022/03/04 00:23:56;;;;;;;0.32;0.20;;;;;;;;;;4198769;28;20503;-35
2022/03/04 00:25:57;;;;;;;1.95;0.10;;;;;;;;;;4198623;28;20141;-35
2022/03/04 00:27:58;;;;;;;0.90;0.20;;;;;;;;;;4198328;28;20075;-35
2022/03/04 00:29:59;;;;;;;0.30;0.30;;;;;;;;;;4197584;28;20110;-35
2022/03/04 00:32:00;;;;;;;0.03;0.00;;;;;;;;;;4198082;28;20052;-34
2022/03/04 00:34:02;;;;;;;0.38;0.17;;;;;;;;;;4198579;28;20450;-36
2022/03/04 00:36:03;;;;;;;0.25;0.10;;;;;;;;;;4197107;28;20064;-35
2022/03/04 00:38:03;;;;;;;0.28;0.10;;;;;;;;;;4198444;28;20082;-34
2022/03/04 00:40:05;;;;;;;0.08;0.05;;;;;;;;;;4198434;28;20616;-34
2022/03/04 00:42:06;;;;;;;0.15;0.03;;;;;;;;;;4196973;28;20057;-34
2022/03/04 00:44:07;;;;;;;0.28;0.05;;;;;;;;;;4198501;28;20400;-35
2022/03/04 00:46:08;;;;;;;0.10;0.10;;;;;;;;;;4197313;28;20114;-35
2022/03/04 00:48:09;;;;;;;0.55;0.10;;;;;;;;;;4197835;28;20052;-35
2022/03/04 00:50:10;;;;;;;0.13;0.10;;;;;;;;;;4198223;28;20139;-35
2022/03/04 00:52:11;;;;;;;0.10;0.10;;;;;;;;;;4196763;28;20099;-35
2022/03/04 00:54:12;;;;;;;0.17;0.17;;;;;;;;;;4198093;28;20053;-35
2022/03/04 00:56:13;;;;;;;1.08;0.20;;;;;;;;;;4198170;28;20518;-34
2022/03/04 00:58:14;;;;;;;0.20;0.10;;;;;;;;;;4197951;28;20049;-34
2022/03/04 01:00:15;;;;;;;0.32;0.20;;;;;;;;;;4197937;28;20094;-35
2022/03/04 01:02:16;;;;;;;0.25;0.10;;;;;;;;;;4197853;28;20083;-35
2022/03/04 01:04:17;;;;;;;0.43;0.10;;;;;;;;;;4198080;28;20070;-35
2022/03/04 01:06:18;;;;;;;0.10;0.10;;;;;;;;;;4198090;28;20174;-34
2022/03/04 01:08:19;;;;;;;0.15;0.10;;;;;;;;;;4197897;28;20053;-35
2022/03/04 01:10:20;;;;;;;0.10;0.10;;;;;;;;;;4198199;28;20061;-36
2022/03/04 01:12:21;;;;;;;0.30;0.10;;;;;;;;;;4197909;28;20114;-35
2022/03/04 01:14:22;;;;;;;0.40;0.10;;;;;;;;;;4196601;28;20066;-34
2022/03/04 01:16:23;;;;;;;0.13;0.10;;;;;;;;;;4197882;28;20084;-35
2022/03/04 01:18:25;;;;;;;0.28;0.10;;;;;;;;;;4197365;28;20049;-35
2022/03/04 01:20:25;;;;;;;0.00;0.00;;;;;;;;;;4197626;28;20074;-35
2022/03/04 01:22:28;;;;;;;0.30;0.10;;;;;;;;;;4197777;28;20053;-35
2022/03/04 01:24:30;;;;;;;0.20;0.10;;;;;;;;;;4197730;28;20094;-35
2022/03/04 01:26:31;;;;;;;0.20;0.20;;;;;;;;;;4197765;28;20056;-35
2022/03/04 01:28:32;;;;;;;0.20;0.10;;;;;;;;;;4196520;28;20044;-35
2022/03/04 01:30:32;;;;;;;1.00;0.20;;;;;;;;;;4198023;28;20078;-35
2022/03/04 01:32:34;;;;;;;0.32;0.15;;;;;;;;;;4196906;28;20056;-34
2022/03/04 01:34:35;;;;;;;0.45;0.20;;;;;;;;;;4197761;28;20045;-35
2022/03/04 01:36:36;;;;;;;1.13;0.30;;;;;;;;;;4197777;28;20058;-35
2022/03/04 01:38:37;;;;;;;0.20;0.10;;;;;;;;;;4197831;28;20090;-35
2022/03/04 01:40:38;;;;;;;0.80;0.40;;;;;;;;;;4197623;28;20128;-36
2022/03/04 01:42:38;;;;;;;0.43;0.17;;;;;;;;;;4197592;28;20135;-35
2022/03/04 01:44:40;;;;;;;0.03;0.03;;;;;;;;;;4197499;28;20102;-35
2022/03/04 01:46:41;;;;;;;0.40;0.20;;;;;;;;;;4197016;28;20053;-35
2022/03/04 01:48:42;;;;;;;0.13;0.10;;;;;;;;;;4197616;28;20061;-35
2022/03/04 01:50:43;;;;;;;0.00;0.00;;;;;;;;;;4197381;28;20055;-35
2022/03/04 01:52:44;;;;;;;0.32;0.10;;;;;;;;;;4197513;28;20052;-34
2022/03/04 01:54:45;;;;;;;0.20;0.13;;;;;;;;;;4197404;28;20114;-35
2022/03/04 01:56:46;;;;;;;0.38;0.10;;;;;;;;;;4196050;28;20048;-42
2022/03/04 01:58:47;;;;;;;0.38;0.15;;;;;;;;;;4197205;28;20079;-35
2022/03/04 02:00:50;;;;;;;0.10;0.10;;;;;;;;;;4195749;28;20087;-36
2022/03/04 02:02:51;;;;;;;0.50;0.10;;;;;;;;;;4196795;28;20077;-35
2022/03/04 02:04:52;;;;;;;0.20;0.13;;;;;;;;;;4197281;28;20052;-35
2022/03/04 02:06:53;;;;;;;0.10;0.05;;;;;;;;;;4197002;28;20070;-35
2022/03/04 02:08:54;;;;;;;0.47;0.20;;;;;;;;;;4197056;28;20057;-35
2022/03/04 02:10:55;;;;;;;0.10;0.10;;;;;;;;;;4195691;28;20055;-35
2022/03/04 02:12:56;;;;;;;0.93;0.20;;;;;;;;;;4197086;28;20049;-34
2022/03/04 02:14:57;;;;;;;0.00;0.00;;;;;;;;;;4197206;28;20117;-35
2022/03/04 02:16:58;;;;;;;0.20;0.10;;;;;;;;;;4196489;28;20063;-34
2022/03/04 02:18:59;;;;;;;1.52;0.10;;;;;;;;;;4196763;28;20088;-34
2022/03/04 02:21:02;;;;;;;0.10;0.10;;;;;;;;;;4196765;28;20041;-34
2022/03/04 02:23:03;;;;;;;0.25;0.10;;;;;;;;;;4195659;28;20060;-35
2022/03/04 02:25:05;;;;;;;0.73;0.20;;;;;;;;;;4197075;28;20049;-34
2022/03/04 02:27:08;;;;;;;0.30;0.10;;;;;;;;;;4196619;28;20078;-34
2022/03/04 02:29:09;;;;;;;0.00;0.00;;;;;;;;;;4197032;28;20265;-34
2022/03/04 02:31:13;;;;;;;0.38;0.10;;;;;;;;;;4196836;28;20070;-34
2022/03/04 02:33:14;;;;;;;0.43;0.13;;;;;;;;;;4196035;28;20056;-35
2022/03/04 02:35:14;;;;;;;0.65;0.10;;;;;;;;;;4196738;28;20144;-34
2022/03/04 02:37:15;;;;;;;0.10;0.10;;;;;;;;;;4196569;28;20052;-35
2022/03/04 02:39:16;;;;;;;0.10;0.10;;;;;;;;;;4196652;28;20094;-35
2022/03/04 02:41:17;;;;;;;0.15;0.13;;;;;;;;;;4196453;28;20128;-35
2022/03/04 02:43:19;;;;;;;0.20;0.10;;;;;;;;;;4196286;28;20098;-34
2022/03/04 02:45:20;;;;;;;0.00;0.00;;;;;;;;;;4195895;28;20537;-34
2022/03/04 02:47:21;;;;;;;0.63;0.20;;;;;;;;;;4195850;28;20055;-34
2022/03/04 02:49:21;;;;;;;0.35;0.10;;;;;;;;;;4196360;28;20064;-35
2022/03/04 02:51:22;;;;;;;0.35;0.10;;;;;;;;;;4196410;28;20102;-36
2022/03/04 02:53:23;;;;;;;0.10;0.10;;;;;;;;;;4196229;28;20491;-35
2022/03/04 02:55:24;;;;;;;1.52;0.10;;;;;;;;;;4195028;28;20092;-35
2022/03/04 02:57:25;;;;;;;0.10;0.10;;;;;;;;;;4196327;28;20105;-35
2022/03/04 02:59:27;;;;;;;0.88;0.28;;;;;;;;;;4196253;28;20091;-34
2022/03/04 03:01:27;;;;;;;0.75;0.10;;;;;;;;;;4196075;28;20088;-34
2022/03/04 03:03:28;;;;;;;0.15;0.10;;;;;;;;;;4195664;28;20040;-34
2022/03/04 03:05:29;;;;;;;0.10;0.10;;;;;;;;;;4196211;28;20127;-34
2022/03/04 03:07:30;;;;;;;0.32;0.10;;;;;;;;;;4196072;28;20080;-34
2022/03/04 03:09:31;;;;;;;0.85;0.20;;;;;;;;;;4196027;28;20313;-35
2022/03/04 03:11:32;;;;;;;0.10;0.10;;;;;;;;;;4196015;28;20074;-35
2022/03/04 03:13:34;;;;;;;0.20;0.20;;;;;;;;;;4196136;28;20059;-35
2022/03/04 03:15:35;;;;;;;0.00;0.00;;;;;;;;;;4195902;28;20052;-35
2022/03/04 03:17:36;;;;;;;0.20;0.13;;;;;;;;;;4195460;28;20098;-35
2022/03/04 03:19:37;;;;;;;0.10;0.10;;;;;;;;;;4196052;28;20059;-42
2022/03/04 03:21:38;;;;;;;0.17;0.08;;;;;;;;;;4195778;28;20040;-35
2022/03/04 03:23:39;;;;;;;0.28;0.10;;;;;;;;;;4195897;28;20097;-36
2022/03/04 03:25:39;;;;;;;0.10;0.10;;;;;;;;;;4195879;28;20165;-35
2022/03/04 03:27:41;;;;;;;0.10;0.10;;;;;;;;;;4195642;28;20179;-36
2022/03/04 03:29:42;;;;;;;0.10;0.10;;;;;;;;;;4195768;28;20057;-35
2022/03/04 03:31:43;;;;;;;0.20;0.00;;;;;;;;;;4195188;28;20457;-34
2022/03/04 03:33:44;;;;;;;0.20;0.10;;;;;;;;;;4195948;28;20103;-35
2022/03/04 03:35:45;;;;;;;0.00;0.00;;;;;;;;;;4194653;28;20074;-35
2022/03/04 03:37:47;;;;;;;0.80;0.20;;;;;;;;;;4195639;28;20106;-35
2022/03/04 03:39:48;;;;;;;0.17;0.08;;;;;;;;;;4196142;28;20052;-35
2022/03/04 03:41:49;;;;;;;0.10;0.10;;;;;;;;;;4195768;28;20484;-34
2022/03/04 03:43:50;;;;;;;0.25;0.13;;;;;;;;;;4194589;28;20553;-35
2022/03/04 03:45:51;;;;;;;0.10;0.10;;;;;;;;;;4195565;28;20075;-35
2022/03/04 03:47:53;;;;;;;0.20;0.10;;;;;;;;;;4195124;28;20099;-35
2022/03/04 03:49:54;;;;;;;0.13;0.10;;;;;;;;;;4195659;28;20048;-34
2022/03/04 03:51:55;;;;;;;0.32;0.13;;;;;;;;;;4194276;28;20553;-34
2022/03/04 03:53:56;;;;;;;0.00;0.00;;;;;;;;;;4195510;28;20071;-35
2022/03/04 03:55:57;;;;;;;0.30;0.20;;;;;;;;;;4195412;28;20090;-34
2022/03/04 03:57:58;;;;;;;0.95;0.17;;;;;;;;;;4195448;28;20162;-35
2022/03/04 03:59:59;;;;;;;0.20;0.10;;;;;;;;;;4195088;28;20094;-34
2022/03/04 04:01:59;;;;;;;0.32;0.10;;;;;;;;;;4195141;28;20153;-35
2022/03/04 04:04:00;;;;;;;0.20;0.10;;;;;;;;;;4195689;28;20408;-35
2022/03/04 04:06:02;;;;;;;0.32;0.10;;;;;;;;;;4195541;28;20113;-35
2022/03/04 04:08:03;;;;;;;0.10;0.10;;;;;;;;;;4194063;28;20072;-34
2022/03/04 04:10:04;;;;;;;0.20;0.20;;;;;;;;;;4194191;28;20587;-35
2022/03/04 04:12:05;;;;;;;0.10;0.10;;;;;;;;;;4195574;28;20061;-34
2022/03/04 04:14:07;;;;;;;0.28;0.10;;;;;;;;;;4195292;28;20459;-35
2022/03/04 04:16:08;;;;;;;0.30;0.10;;;;;;;;;;4195483;28;20499;-34
2022/03/04 04:18:09;;;;;;;0.15;0.10;;;;;;;;;;4194790;28;20068;-35
2022/03/04 04:20:10;;;;;;;0.10;0.10;;;;;;;;;;4195227;28;20131;-35
2022/03/04 04:22:11;;;;;;;0.30;0.10;;;;;;;;;;4194006;28;20056;-35
2022/03/04 04:24:12;;;;;;;0.10;0.10;;;;;;;;;;4194148;28;20114;-34
2022/03/04 04:26:13;;;;;;;0.25;0.10;;;;;;;;;;4195246;28;20538;-35
2022/03/04 04:28:14;;;;;;;0.20;0.10;;;;;;;;;;4195309;28;20074;-34
2022/03/04 04:30:15;;;;;;;0.10;0.10;;;;;;;;;;4195421;28;20055;-35
2022/03/04 04:32:16;;;;;;;0.20;0.10;;;;;;;;;;4194769;28;20128;-34
2022/03/04 04:34:16;;;;;;;0.05;0.05;;;;;;;;;;4195406;28;20103;-34
2022/03/04 04:36:17;;;;;;;0.35;0.13;;;;;;;;;;4195325;28;20118;-36
2022/03/04 04:38:18;;;;;;;0.22;0.00;;;;;;;;;;4195378;28;20305;-35
2022/03/04 04:40:20;;;;;;;0.15;0.10;;;;;;;;;;4195521;28;20114;-35
2022/03/04 04:42:21;;;;;;;0.55;0.17;;;;;;;;;;4195047;28;20060;-35
2022/03/04 04:44:21;;;;;;;0.43;0.20;;;;;;;;;;4195174;28;20602;-35
2022/03/04 04:46:22;;;;;;;0.40;0.10;;;;;;;;;;4195188;28;20480;-35
2022/03/04 04:48:23;;;;;;;0.30;0.10;;;;;;;;;;4194734;28;20095;-36
2022/03/04 04:50:24;;;;;;;0.38;0.10;;;;;;;;;;4193862;28;20051;-35
2022/03/04 04:52:25;;;;;;;0.10;0.10;;;;;;;;;;4194862;28;20048;-34
2022/03/04 04:54:26;;;;;;;0.30;0.20;;;;;;;;;;4194934;28;20514;-36
2022/03/04 04:56:26;;;;;;;0.47;0.10;;;;;;;;;;4195155;28;20095;-35
2022/03/04 04:58:27;;;;;;;0.10;0.10;;;;;;;;;;4194753;28;20102;-34
2022/03/04 05:00:28;;;;;;;0.20;0.10;;;;;;;;;;4194809;28;20127;-35
2022/03/04 05:02:30;;;;;;;0.20;0.05;;;;;;;;;;4193508;28;20055;-34
2022/03/04 05:04:31;;;;;;;0.30;0.10;;;;;;;;;;4195033;28;20127;-35
2022/03/04 05:06:31;;;;;;;0.20;0.17;;;;;;;;;;4195045;28;20198;-36
2022/03/04 05:08:33;;;;;;;0.20;0.10;;;;;;;;;;4195940;28;20052;-35
2022/03/04 05:10:34;;;;;;;0.40;0.20;;;;;;;;;;4198014;28;20053;-35
2022/03/04 05:12:35;;;;;;;0.13;0.10;;;;;;;;;;4197642;28;20099;-34
2022/03/04 05:14:36;;;;;;;0.45;0.10;;;;;;;;;;4197856;28;20117;-35
2022/03/04 05:16:37;;;;;;;0.10;0.10;;;;;;;;;;4197831;28;20092;-34
2022/03/04 05:18:38;;;;;;;0.17;0.08;;;;;;;;;;4197703;28;20052;-35
2022/03/04 05:20:39;;;;;;;0.00;0.00;;;;;;;;;;4196492;28;20110;-34
2022/03/04 05:22:40;;;;;;;1.02;0.10;;;;;;;;;;4197668;28;20465;-35
2022/03/04 05:24:41;;;;;;;0.00;0.00;;;;;;;;;;4197777;28;20106;-35
2022/03/04 05:26:42;;;;;;;0.10;0.10;;;;;;;;;;4197501;28;20433;-34
2022/03/04 05:28:43;;;;;;;0.32;0.10;;;;;;;;;;4197803;28;20099;-35
2022/03/04 05:30:44;;;;;;;0.10;0.10;;;;;;;;;;4197663;28;20103;-35
2022/03/04 05:32:45;;;;;;;0.17;0.10;;;;;;;;;;4197377;28;20056;-35
2022/03/04 05:34:46;;;;;;;0.20;0.10;;;;;;;;;;4197799;28;20118;-35
2022/03/04 05:36:47;;;;;;;0.20;0.10;;;;;;;;;;4197448;28;20088;-35
2022/03/04 05:38:48;;;;;;;0.10;0.10;;;;;;;;;;4196108;28;20190;-35
2022/03/04 05:40:49;;;;;;;0.45;0.15;;;;;;;;;;4197266;28;20048;-35
2022/03/04 05:42:50;;;;;;;0.20;0.10;;;;;;;;;;4196075;28;20157;-36
2022/03/04 05:44:51;;;;;;;0.20;0.20;;;;;;;;;;4197412;28;20044;-35
2022/03/04 05:46:52;;;;;;;0.43;0.28;;;;;;;;;;4195987;28;20053;-35
2022/03/04 05:48:53;;;;;;;0.10;0.10;;;;;;;;;;4197423;28;20090;-35
2022/03/04 05:50:54;;;;;;;0.20;0.10;;;;;;;;;;4197322;28;20048;-35
2022/03/04 05:52:54;;;;;;;0.10;0.10;;;;;;;;;;4197346;28;20052;-34
2022/03/04 05:54:55;;;;;;;0.32;0.10;;;;;;;;;;4197205;28;20477;-35
2022/03/04 05:56:56;;;;;;;1.27;0.50;;;;;;;;;;4197373;28;20053;-34
2022/03/04 05:58:57;;;;;;;0.43;0.10;;;;;;;;;;4196012;28;20077;-35
2022/03/04 06:00:58;;;;;;;0.20;0.10;;;;;;;;;;4187466;28;20123;-41
2022/03/04 06:02:59;;;;;;;0.28;0.10;;;;;;;;;;4178550;28;20106;-41
2022/03/04 06:05:00;;;;;;;0.40;0.20;;;;;;;;;;4178673;28;20869;-41
2022/03/04 06:07:01;;;;;;;0.50;0.13;;;;;;;;;;4178717;28;20091;-41
2022/03/04 06:09:02;;;;;;;0.32;0.10;;;;;;;;;;4178583;28;20136;-43
2022/03/04 06:11:03;;;;;;;0.35;0.20;;;;;;;;;;4178491;28;20064;-41
2022/03/04 06:13:04;;;;;;;0.55;0.10;;;;;;;;;;4178213;28;20159;-41
2022/03/04 06:15:05;;;;;;;0.60;0.20;;;;;;;;;;4178320;28;20527;-42
2022/03/04 06:17:06;;;;;;;0.82;0.30;;;;;;;;;;4178058;28;20053;-41
2022/03/04 06:19:08;;;;;;;0.10;0.10;;;;;;;;;;4178504;28;20114;-43
2022/03/04 06:21:09;;;;;;;0.22;0.10;;;;;;;;;;4178329;28;20103;-41
2022/03/04 06:23:11;;;;;;;0.20;0.10;;;;;;;;;;4178605;28;20132;-41
2022/03/04 06:25:13;;;;;;;0.20;0.10;;;;;;;;;;4178106;28;20103;-42
2022/03/04 06:27:14;;;;;;;0.50;0.20;;;;;;;;;;4178040;28;20094;-42
2022/03/04 06:29:14;;;;;;;0.15;0.10;;;;;;;;;;4178190;28;20190;-42
2022/03/04 06:31:15;;;;;;;0.90;0.10;;;;;;;;;;4178009;28;20097;-41
2022/03/04 06:33:35;;;;;;;1.20;0.20;;;;;;;;;;4190719;28;20128;-41
2022/03/04 06:35:36;;;;;;;1.60;0.17;;;;;;;;;;4195173;28;20133;-42
2022/03/04 06:37:37;;;;;;;0.35;0.17;;;;;;;;;;4181720;28;20056;-42
2022/03/04 06:39:39;;;;;;;0.32;0.17;;;;;;;;;;4190082;28;20056;-41
2022/03/04 06:41:40;;;;;;;0.38;0.10;;;;;;;;;;4194423;28;20558;-41
2022/03/04 06:43:41;;;;;;;0.10;0.10;;;;;;;;;;4194689;28;20503;-43
2022/03/04 06:45:46;;;;;;;0.20;0.10;;;;;;;;;;4194798;28;20456;-42
2022/03/04 06:47:47;;;;;;;0.40;0.20;;;;;;;;;;4193810;28;20503;-42
2022/03/04 06:49:48;;;;;;;0.22;0.10;;;;;;;;;;4194133;28;20048;-42
2022/03/04 06:51:48;;;;;;;0.52;0.20;;;;;;;;;;4194485;28;20106;-42
2022/03/04 06:53:49;;;;;;;0.20;0.20;;;;;;;;;;4194213;28;20454;-42
2022/03/04 06:55:50;;;;;;;0.30;0.17;;;;;;;;;;4194622;28;20106;-42
2022/03/04 06:57:53;;;;;;;0.93;0.30;;;;;;;;;;4194183;28;20053;-41
2022/03/04 06:59:54;;;;;;;1.13;0.22;;;;;;;;;;4194077;28;20057;-42
2022/03/04 07:01:55;;;;;;;1.00;0.20;;;;;;;;;;4193496;28;20454;-41
2022/03/04 07:03:56;;;;;;;0.10;0.10;;;;;;;;;;4194108;28;20074;-41
2022/03/04 07:05:57;;;;;;;0.85;0.20;;;;;;;;;;4194544;28;20266;-43
2022/03/04 07:07:58;;;;;;;0.65;0.17;;;;;;;;;;4194149;28;20044;-43
2022/03/04 07:09:59;;;;;;;0.47;0.10;;;;;;;;;;4192909;28;20044;-42
2022/03/04 07:12:00;;;;;;;0.68;0.17;;;;;;;;;;4192839;28;20118;-43
2022/03/04 07:14:01;;;;;;;3.10;0.30;;;;;;;;;;4193771;28;20087;-43
2022/03/04 07:16:02;;;;;;;0.55;0.20;;;;;;;;;;4194158;28;20186;-43
2022/03/04 07:18:03;;;;;;;1.92;0.30;;;;;;;;;;4193393;28;20060;-42
2022/03/04 07:20:05;;;;;;;3.47;0.65;;;;;;;;;;4192580;28;20348;-43
2022/03/04 07:22:07;;;;;;;0.43;0.20;;;;;;;;;;4193490;28;20049;-43
2022/03/04 07:24:08;;;;;;;1.23;0.20;;;;;;;;;;4193620;28;20052;-43
2022/03/04 07:26:10;;;;;;;0.68;0.50;;;;;;;;;;4186392;28;20059;-43
2022/03/04 07:28:11;;;;;;;1.50;0.40;;;;;;;;;;4188502;28;20130;-44
2022/03/04 07:30:13;;;;;;;0.82;0.30;;;;;;;;;;4193620;28;20056;-43
2022/03/04 07:32:14;;;;;;;1.00;0.30;;;;;;;;;;4184373;28;20106;-44
2022/03/04 07:34:15;;;;;;;0.45;0.13;;;;;;;;;;4180927;28;20130;-43
2022/03/04 07:36:16;;;;;;;0.85;0.40;;;;;;;;;;4189166;28;20881;-42
2022/03/04 07:38:17;;;;;;;3.53;0.30;;;;;;;;;;4184714;28;20066;-43
2022/03/04 07:40:18;;;;;;;1.30;0.30;;;;;;;;;;4180910;28;20062;-44
2022/03/04 07:42:20;;;;;;;0.40;0.10;;;;;;;;;;4193343;28;20064;-43
2022/03/04 07:44:21;;;;;;;0.90;0.28;;;;;;;;;;4185671;28;20079;-43
2022/03/04 07:46:22;;;;;;;0.93;0.40;;;;;;;;;;4193579;28;20098;-42
2022/03/04 07:48:23;;;;;;;1.40;0.20;;;;;;;;;;4188377;28;20519;-43
2022/03/04 07:50:24;;;;;;;1.90;0.38;;;;;;;;;;4190246;28;20396;-44
2022/03/04 07:52:31;;;;;;;0.90;0.20;;;;;;;;;;4183887;28;20074;-43
2022/03/04 07:54:32;;;;;;;0.88;0.28;;;;;;;;;;4188362;28;20059;-43
2022/03/04 07:56:33;;;;;;;2.35;0.32;;;;;;;;;;4192908;28;20044;-44
2022/03/04 07:58:34;;;;;;;0.70;0.22;;;;;;;;;;4186538;28;20052;-43
2022/03/04 08:00:35;;;;;;;0.45;0.20;;;;;;;;;;4191365;28;20482;-44
2022/03/04 08:02:36;;;;;;;0.77;0.25;;;;;;;;;;4192758;28;20487;-43
2022/03/04 08:04:37;;;;;;;1.42;0.25;;;;;;;;;;4186349;28;20049;-41
2022/03/04 08:06:38;;;;;;;1.50;0.40;;;;;;;;;;4186579;28;20051;-43
2022/03/04 08:08:39;;;;;;;1.42;0.50;;;;;;;;;;4182445;28;20048;-43
2022/03/04 08:10:40;;;;;;;0.98;0.47;;;;;;;;;;4193226;28;20144;-43
2022/03/04 08:12:42;;;;;;;1.88;0.35;;;;;;;;;;4192468;28;20633;-43
2022/03/04 08:14:43;;;;;;;1.80;0.40;;;;;;;;;;4192072;28;20371;-43
2022/03/04 08:16:44;;;;;;;1.48;0.20;;;;;;;;;;4192441;28;20437;-43
2022/03/04 08:18:44;;;;;;;0.70;0.30;;;;;;;;;;4190249;28;20206;-43
2022/03/04 08:20:46;;;;;;;1.75;0.45;;;;;;;;;;4185954;28;20098;-43
2022/03/04 08:22:47;;;;;;;1.08;0.30;;;;;;;;;;4181926;28;20084;-43
2022/03/04 08:24:48;;;;;;;1.05;0.28;;;;;;;;;;4177381;28;20049;-43
2022/03/04 08:26:48;;;;;;;1.95;0.28;;;;;;;;;;4192951;28;20520;-44
2022/03/04 08:28:49;;;;;;;3.13;0.32;;;;;;;;;;4192560;28;20098;-44
2022/03/04 08:30:50;;;;;;;0.77;0.20;;;;;;;;;;4182703;28;20099;-42
2022/03/04 08:32:51;;;;;;;1.15;0.20;;;;;;;;;;4192519;28;20055;-43
2022/03/04 08:34:52;;;;;;;0.55;0.30;;;;;;;;;;4185413;28;20512;-44
2022/03/04 08:36:53;;;;;;;0.68;0.10;;;;;;;;;;4184708;28;20083;-44
2022/03/04 08:38:54;;;;;;;1.33;0.20;;;;;;;;;;4192643;28;20128;-42
2022/03/04 08:40:55;;;;;;;0.65;0.20;;;;;;;;;;4187078;28;20040;-43
2022/03/04 08:42:56;;;;;;;0.80;0.30;;;;;;;;;;4194233;28;20095;-43
2022/03/04 08:44:57;;;;;;;0.85;0.30;;;;;;;;;;4191336;28;20114;-41
2022/03/04 08:46:58;;;;;;;0.22;0.20;;;;;;;;;;4193189;28;20502;-44
2022/03/04 08:48:59;;;;;;;0.22;0.15;;;;;;;;;;4186782;28;20084;-41
2022/03/04 08:51:00;;;;;;;0.63;0.30;;;;;;;;;;4186626;28;20337;-45
2022/03/04 08:53:01;;;;;;;0.30;0.10;;;;;;;;;;4194523;28;20056;-43
2022/03/04 08:55:03;;;;;;;1.27;0.50;;;;;;;;;;4195820;28;20083;-43
2022/03/04 08:57:05;;;;;;;0.52;0.22;;;;;;;;;;4195850;28;20063;-43
2022/03/04 08:59:07;;;;;;;1.10;0.30;;;;;;;;;;4191858;28;20126;-43
2022/03/04 09:01:08;;;;;;;0.80;0.25;;;;;;;;;;4195614;28;20356;-42
2022/03/04 09:03:09;;;;;;;0.25;0.10;;;;;;;;;;4189396;28;20121;-43
2022/03/04 09:05:10;;;;;;;0.20;0.15;;;;;;;;;;4195318;28;20065;-43
2022/03/04 09:07:11;;;;;;;0.40;0.20;;;;;;;;;;4194676;28;20135;-43
2022/03/04 09:09:12;;;;;;;0.30;0.20;;;;;;;;;;4195897;28;20114;-43
2022/03/04 09:11:13;;;;;;;0.52;0.30;;;;;;;;;;4189747;28;20057;-44
2022/03/04 09:13:14;;;;;;;0.80;0.30;;;;;;;;;;4190560;28;20109;-43
2022/03/04 09:15:15;;;;;;;0.85;0.20;;;;;;;;;;4195299;28;20117;-42
2022/03/04 09:17:16;;;;;;;0.73;0.20;;;;;;;;;;4194755;28;20053;-44
2022/03/04 09:19:17;;;;;;;0.47;0.20;;;;;;;;;;4195425;28;20048;-43
2022/03/04 09:21:18;;;;;;;1.20;0.10;;;;;;;;;;4195477;28;20090;-43
2022/03/04 09:23:20;;;;;;;0.93;0.20;;;;;;;;;;4194422;28;20362;-43
2022/03/04 09:25:21;;;;;;;0.65;0.38;;;;;;;;;;4190227;28;20048;-44
2022/03/04 09:27:22;;;;;;;0.70;0.28;;;;;;;;;;4178691;28;20060;-43
2022/03/04 09:29:23;;;;;;;2.20;0.25;;;;;;;;;;4190700;28;20052;-43
2022/03/04 09:31:24;;;;;;;0.95;0.20;;;;;;;;;;4195222;28;20127;-42
2022/03/04 09:33:25;;;;;;;0.20;0.20;;;;;;;;;;4194959;28;20113;-43
2022/03/04 09:35:25;;;;;;;0.40;0.30;;;;;;;;;;4183224;28;20109;-44
2022/03/04 09:37:26;;;;;;;1.85;0.30;;;;;;;;;;4190730;28;20071;-44
2022/03/04 09:39:27;;;;;;;0.55;0.38;;;;;;;;;;4181128;28;20088;-44
2022/03/04 09:41:28;;;;;;;0.45;0.20;;;;;;;;;;4181205;28;20126;-43
2022/03/04 09:43:29;;;;;;;0.60;0.20;;;;;;;;;;4179927;28;20056;-44
2022/03/04 09:45:30;;;;;;;0.40;0.20;;;;;;;;;;4191227;28;20099;-43
2022/03/04 09:47:32;;;;;;;0.60;0.20;;;;;;;;;;4183813;28;20056;-43
2022/03/04 09:49:35;;;;;;;0.30;0.20;;;;;;;;;;4191728;28;20048;-42
2022/03/04 09:51:36;;;;;;;0.20;0.20;;;;;;;;;;4191628;28;20063;-43
2022/03/04 09:53:37;;;;;;;0.20;0.20;;;;;;;;;;4187557;28;20075;-42
2022/03/04 09:55:39;;;;;;;0.70;0.25;;;;;;;;;;4198069;28;20357;-41
2022/03/04 09:57:41;;;;;;;0.32;0.10;;;;;;;;;;4177049;28;20060;-44
2022/03/04 09:59:43;;;;;;;0.50;0.25;;;;;;;;;;4185854;28;20064;-41
2022/03/04 10:01:44;;;;;;;0.43;0.20;;;;;;;;;;4187451;28;20057;-44
2022/03/04 10:03:49;;;;;;;0.50;0.20;;;;;;;;;;4185115;28;20053;-42
2022/03/04 10:05:51;;;;;;;0.52;0.20;;;;;;;;;;4183994;28;20102;-44
2022/03/04 10:07:52;;;;;;;0.15;0.10;;;;;;;;;;4188784;28;20446;-43
2022/03/04 10:09:53;;;;;;;0.52;0.20;;;;;;;;;;4187495;28;20048;-43
2022/03/04 10:12:01;;;;;;;0.93;0.20;;;;;;;;;;4188357;28;20063;-44
2022/03/04 10:14:03;;;;;;;1.45;0.22;;;;;;;;;;4183942;28;20063;-44
2022/03/04 10:16:04;;;;;;;0.32;0.20;;;;;;;;;;4189952;28;20499;-43
2022/03/04 10:18:05;;;;;;;1.08;0.20;;;;;;;;;;4188836;28;20055;-43
2022/03/04 10:20:08;;;;;;;0.20;0.20;;;;;;;;;;4177882;28;20084;-42
2022/03/04 10:22:08;;;;;;;0.15;0.10;;;;;;;;;;4175224;28;20442;-42
2022/03/04 10:24:09;;;;;;;1.15;0.20;;;;;;;;;;4186385;28;20117;-40
2022/03/04 10:26:11;;;;;;;1.95;0.63;;;;;;;;;;4181530;28;20102;-44
2022/03/04 10:28:12;;;;;;;1.90;0.20;;;;;;;;;;4175645;28;20559;-42
2022/03/04 10:30:15;;;;;;;0.30;0.10;;;;;;;;;;4183296;28;20317;-41
2022/03/04 10:32:24;;;;;;;0.63;0.30;;;;;;;;;;4190593;28;20926;-43
2022/03/04 10:34:25;;;;;;;0.30;0.20;;;;;;;;;;4186172;28;20078;-44
2022/03/04 10:36:26;;;;;;;0.82;0.20;;;;;;;;;;4190002;28;20082;-42
2022/03/04 10:38:27;;;;;;;0.50;0.10;;;;;;;;;;4185000;28;20562;-41
2022/03/04 10:40:29;;;;;;;1.70;0.20;;;;;;;;;;4184197;28;20461;-42
2022/03/04 10:42:49;;;;;;;0.77;0.30;;;;;;;;;;4190011;28;20102;-44
2022/03/04 10:45:03;;;;;;;0.30;0.20;;;;;;;;;;4188743;28;20048;-46
2022/03/04 10:47:04;;;;;;;0.30;0.10;;;;;;;;;;4185855;28;20476;-42
2022/03/04 10:49:05;;;;;;;0.60;0.17;;;;;;;;;;4197552;28;20056;-44
2022/03/04 10:51:06;;;;;;;2.13;0.20;;;;;;;;;;4176961;28;20049;-44
2022/03/04 10:53:11;;;;;;;0.55;0.20;;;;;;;;;;4189890;28;20056;-43
2022/03/04 10:55:12;;;;;;;0.30;0.20;;;;;;;;;;4191782;28;20640;-42
2022/03/04 10:57:19;;;;;;;1.20;0.30;;;;;;;;;;4185757;28;20312;-43
2022/03/04 10:59:24;;;;;;;0.77;0.20;;;;;;;;;;4177463;28;20504;-46
2022/03/04 11:01:24;;;;;;;0.55;0.10;;;;;;;;;;4186787;28;20055;-43
2022/03/04 11:03:27;;;;;;;0.32;0.20;;;;;;;;;;4183880;28;20044;-43
2022/03/04 11:05:28;;;;;;;0.65;0.10;;;;;;;;;;4182397;28;20048;-44
2022/03/04 11:07:29;;;;;;;0.15;0.10;;;;;;;;;;4184358;28;20067;-46
2022/03/04 11:09:30;;;;;;;0.93;0.30;;;;;;;;;;4179088;28;20090;-43
2022/03/04 11:11:32;;;;;;;0.75;0.10;;;;;;;;;;4183220;28;20052;-43
2022/03/04 11:13:34;;;;;;;0.38;0.20;;;;;;;;;;4184179;28;20497;-45
2022/03/04 11:15:37;;;;;;;0.25;0.20;;;;;;;;;;4188958;28;20622;-44
2022/03/04 11:17:38;;;;;;;0.30;0.10;;;;;;;;;;4190193;28;20699;-44
2022/03/04 11:19:39;;;;;;;0.65;0.13;;;;;;;;;;4185320;28;20048;-44
2022/03/04 11:21:40;;;;;;;0.52;0.25;;;;;;;;;;4183649;28;20055;-43
2022/03/04 11:23:45;;;;;;;0.93;0.40;;;;;;;;;;4188300;28;20139;-46
2022/03/04 11:25:51;;;;;;;0.30;0.20;;;;;;;;;;4181345;28;20110;-43
2022/03/04 11:27:53;;;;;;;0.63;0.20;;;;;;;;;;4181836;28;20052;-43
2022/03/04 11:29:57;;;;;;;0.52;0.40;;;;;;;;;;4184070;28;20496;-43
2022/03/04 11:31:58;;;;;;;0.45;0.20;;;;;;;;;;4183934;28;20053;-44
2022/03/04 11:34:00;;;;;;;0.00;0.00;;;;;;;;;;4182176;28;20056;-43
2022/03/04 11:36:22;;;;;;;0.10;0.08;;;;;;;;;;4178283;28;20510;-44
2022/03/04 11:38:42;;;;;;;0.32;0.20;;;;;;;;;;4182203;28;20061;-42
2022/03/04 11:40:50;;;;;;;0.25;0.05;;;;;;;;;;4182884;28;20061;-43
2022/03/04 11:42:51;;;;;;;0.28;0.10;;;;;;;;;;4181848;28;20045;-45
2022/03/04 11:44:53;;;;;;;0.20;0.20;;;;;;;;;;4183972;28;20087;-44
2022/03/04 11:47:02;;;;;;;0.30;0.10;;;;;;;;;;4176004;28;20094;-43
2022/03/04 11:49:22;;;;;;;0.10;0.10;;;;;;;;;;4191222;28;20052;-43
2022/03/04 11:51:23;;;;;;;0.20;0.10;;;;;;;;;;4187964;28;20061;-44
2022/03/04 11:53:25;;;;;;;0.20;0.20;;;;;;;;;;4197080;23;20339;-59
2022/03/04 11:55:26;;;;;;;0.20;0.10;;;;;;;;;;4155593;28;20107;-58
2022/03/04 11:57:28;;;;;;;0.95;0.13;;;;;;;;;;4176368;28;20040;-58
2022/03/04 11:59:29;;;;;;;0.10;0.10;;;;;;;;;;4187919;28;20052;-59
2022/03/04 12:01:34;;;;;;;0.10;0.10;;;;;;;;;;4189414;28;20051;-60
2022/03/04 12:03:35;;;;;;;0.10;0.10;;;;;;;;;;4188036;28;20106;-59
2022/03/04 12:05:38;;;;;;;0.35;0.20;;;;;;;;;;4171080;28;20049;-59
2022/03/04 12:07:41;;;;;;;0.47;0.17;;;;;;;;;;4190263;28;20044;-57
2022/03/04 12:09:49;;;;;;;0.20;0.10;;;;;;;;;;4188286;28;20090;-57